Time;durP1;ratioP1;P1;durP2;ratioP2;P2;SDS_P1;SDS_P2;PMS_P1;PMS_P2;Temp;Humidity;BMP_temperature;BMP_pressure;BME280_temperature;BME280_humidity;BME280_pressure;Samples;Min_cycle;Max_cycle;Signal;HPM_P1;HPM_P2
2023/08/19 00:02:14;;;;;;;;;;;;;;;;;;4981092;28;19936;-65
2023/08/19 00:04:40;;;;;;;;;;;;;;;;;;4998393;28;19917;-64
2023/08/19 00:07:08;;;;;;;;;;;;;;;;;;4984571;28;20538;-65
2023/08/19 00:09:36;;;;;;;;;;;;;;;;;;4998530;28;19922;-67
2023/08/19 00:12:01;;;;;;;;;;;;;;;;;;4998000;28;19963;-64
2023/08/19 00:14:29;;;;;;;;;;;;;;;;;;4986601;28;19940;-64
2023/08/19 00:16:55;;;;;;;;;;;;;;;;;;4990428;28;19929;-66
2023/08/19 00:19:20;;;;;;;;;;;;;;;;;;5000223;28;19928;-65
2023/08/19 00:21:46;;;;;;;;;;;;;;;;;;5001425;28;19921;-65
2023/08/19 00:24:11;;;;;;;;;;;;;;;;;;4998845;28;20044;-65
2023/08/19 00:26:37;;;;;;;;;;;;;;;;;;5001034;28;19932;-64
2023/08/19 00:29:05;;;;;;;;;;;;;;;;;;4999555;28;20028;-65
2023/08/19 00:31:30;;;;;;;;;;;;;;;;;;5001233;28;19922;-65
2023/08/19 00:33:56;;;;;;;;;;;;;;;;;;5001221;28;19918;-66
2023/08/19 00:36:21;;;;;;;;;;;;;;;;;;5005653;28;20660;-67
2023/08/19 00:38:51;;;;;;;;;;;;;;;;;;4985217;28;20316;-66
2023/08/19 00:41:19;;;;;;;;;;;;;;;;;;4999601;28;19932;-66
2023/08/19 00:43:44;;;;;;;;;;;;;;;;;;4981206;28;19921;-69
2023/08/19 00:46:11;;;;;;;;;;;;;;;;;;5006811;28;20365;-66
2023/08/19 00:48:39;;;;;;;;;;;;;;;;;;4999665;28;19921;-66
2023/08/19 00:51:05;;;;;;;;;;;;;;;;;;5002057;28;20378;-66
2023/08/19 00:53:34;;;;;;;;;;;;;;;;;;4999713;28;20251;-65
2023/08/19 00:55:59;;;;;;;;;;;;;;;;;;4998116;28;19918;-66
2023/08/19 00:58:25;;;;;;;;;;;;;;;;;;5000581;28;19929;-66
2023/08/19 01:00:53;;;;;;;;;;;;;;;;;;5006283;28;20455;-65
2023/08/19 01:03:21;;;;;;;;;;;;;;;;;;4983101;28;20012;-66
2023/08/19 01:05:49;;;;;;;;;;;;;;;;;;4998311;28;19924;-66
2023/08/19 01:08:15;;;;;;;;;;;;;;;;;;4979778;28;19917;-66
2023/08/19 01:10:41;;;;;;;;;;;;;;;;;;4999953;28;20560;-66
2023/08/19 01:13:06;;;;;;;;;;;;;;;;;;4998767;28;20456;-65
2023/08/19 01:15:32;;;;;;;;;;;;;;;;;;4996404;28;19952;-65
2023/08/19 01:17:58;;;;;;;;;;;;;;;;;;4987085;28;20361;-66
2023/08/19 01:20:31;;;;;;;;;;;;;;;;;;4980148;28;19998;-66
2023/08/19 01:22:57;;;;;;;;;;;;;;;;;;4997798;28;19921;-66
2023/08/19 01:25:22;;;;;;;;;;;;;;;;;;4987060;28;19921;-66
2023/08/19 01:27:50;;;;;;;;;;;;;;;;;;5003043;28;19921;-66
2023/08/19 01:30:18;;;;;;;;;;;;;;;;;;4990163;28;20364;-66
2023/08/19 01:32:46;;;;;;;;;;;;;;;;;;5003377;28;19925;-66
2023/08/19 01:35:17;;;;;;;;;;;;;;;;;;4999140;28;19991;-65
2023/08/19 01:37:43;;;;;;;;;;;;;;;;;;5001130;28;19979;-66
2023/08/19 01:40:08;;;;;;;;;;;;;;;;;;5003680;28;20008;-65
2023/08/19 01:42:34;;;;;;;;;;;;;;;;;;5000343;28;19922;-65
2023/08/19 01:45:00;;;;;;;;;;;;;;;;;;4986533;28;19931;-64
2023/08/19 01:47:25;;;;;;;;;;;;;;;;;;5022357;28;20040;-65
2023/08/19 01:49:52;;;;;;;;;;;;;;;;;;5002913;28;19921;-65
2023/08/19 01:52:18;;;;;;;;;;;;;;;;;;4994765;28;19959;-65
2023/08/19 01:54:46;;;;;;;;;;;;;;;;;;5011607;28;19978;-67
2023/08/19 01:57:12;;;;;;;;;;;;;;;;;;5003808;28;19929;-67
2023/08/19 01:59:37;;;;;;;;;;;;;;;;;;5003981;28;19971;-65
2023/08/19 02:02:03;;;;;;;;;;;;;;;;;;4994105;28;19917;-65
2023/08/19 02:04:34;;;;;;;;;;;;;;;;;;5002230;28;19994;-68
2023/08/19 02:06:59;;;;;;;;;;;;;;;;;;5020002;28;19917;-65
2023/08/19 02:09:25;;;;;;;;;;;;;;;;;;4994568;28;19947;-67
2023/08/19 02:11:53;;;;;;;;;;;;;;;;;;5012987;28;19921;-65
2023/08/19 02:14:18;;;;;;;;;;;;;;;;;;5003614;28;20376;-70
2023/08/19 02:16:43;;;;;;;;;;;;;;;;;;4986994;28;20373;-66
2023/08/19 02:19:09;;;;;;;;;;;;;;;;;;4991278;28;19917;-65
2023/08/19 02:21:35;;;;;;;;;;;;;;;;;;4984915;28;19921;-65
2023/08/19 02:24:03;;;;;;;;;;;;;;;;;;5010555;28;19917;-65
2023/08/19 02:26:28;;;;;;;;;;;;;;;;;;5021922;28;21632;-66
2023/08/19 02:28:59;;;;;;;;;;;;;;;;;;5004587;28;19921;-66
2023/08/19 02:31:26;;;;;;;;;;;;;;;;;;4990602;28;20277;-66
2023/08/19 02:33:51;;;;;;;;;;;;;;;;;;5000388;28;20416;-66
2023/08/19 02:36:19;;;;;;;;;;;;;;;;;;5011637;28;19928;-66
2023/08/19 02:38:45;;;;;;;;;;;;;;;;;;5018748;28;21817;-66
2023/08/19 02:41:10;;;;;;;;;;;;;;;;;;4990300;28;19967;-65
2023/08/19 02:43:36;;;;;;;;;;;;;;;;;;4998806;28;19934;-66
2023/08/19 02:46:02;;;;;;;;;;;;;;;;;;5000664;28;20003;-66
2023/08/19 02:48:27;;;;;;;;;;;;;;;;;;4980892;28;19922;-66
2023/08/19 02:50:56;;;;;;;;;;;;;;;;;;5001823;28;19974;-66
2023/08/19 02:53:21;;;;;;;;;;;;;;;;;;4998645;28;19929;-66
2023/08/19 02:55:51;;;;;;;;;;;;;;;;;;5003101;28;19921;-67
2023/08/19 02:58:19;;;;;;;;;;;;;;;;;;4998996;28;19925;-66
2023/08/19 03:00:46;;;;;;;;;;;;;;;;;;5000239;28;21900;-66
2023/08/19 03:03:11;;;;;;;;;;;;;;;;;;4992831;28;19924;-65
2023/08/19 03:05:40;;;;;;;;;;;;;;;;;;5001060;28;20906;-66
2023/08/19 03:08:05;;;;;;;;;;;;;;;;;;4991042;28;19917;-67
2023/08/19 03:10:33;;;;;;;;;;;;;;;;;;4980131;28;19924;-68
2023/08/19 03:12:59;;;;;;;;;;;;;;;;;;4997010;28;19949;-65
2023/08/19 03:15:26;;;;;;;;;;;;;;;;;;4999033;28;20242;-65
2023/08/19 03:17:52;;;;;;;;;;;;;;;;;;4998373;28;20024;-65
2023/08/19 03:20:17;;;;;;;;;;;;;;;;;;4990896;28;19918;-65
2023/08/19 03:22:42;;;;;;;;;;;;;;;;;;4996839;28;19921;-65
2023/08/19 03:25:12;;;;;;;;;;;;;;;;;;4996006;28;19917;-65
2023/08/19 03:27:40;;;;;;;;;;;;;;;;;;4984756;28;19925;-65
2023/08/19 03:30:05;;;;;;;;;;;;;;;;;;5006314;28;19914;-66
2023/08/19 03:32:33;;;;;;;;;;;;;;;;;;4999796;28;19948;-65
2023/08/19 03:34:58;;;;;;;;;;;;;;;;;;4997975;28;20012;-64
2023/08/19 03:37:24;;;;;;;;;;;;;;;;;;4999648;28;19921;-66
2023/08/19 03:39:52;;;;;;;;;;;;;;;;;;4999641;28;20510;-65
2023/08/19 03:42:18;;;;;;;;;;;;;;;;;;5000162;28;19918;-65
2023/08/19 03:44:43;;;;;;;;;;;;;;;;;;4990721;28;19924;-65
2023/08/19 03:47:08;;;;;;;;;;;;;;;;;;4996337;28;19921;-67
2023/08/19 03:49:33;;;;;;;;;;;;;;;;;;4997016;28;19963;-67
2023/08/19 03:52:02;;;;;;;;;;;;;;;;;;4998390;28;19921;-66
2023/08/19 03:54:27;;;;;;;;;;;;;;;;;;4996470;28;19941;-66
2023/08/19 03:56:56;;;;;;;;;;;;;;;;;;5005429;28;19928;-66
2023/08/19 03:59:21;;;;;;;;;;;;;;;;;;4998941;28;20050;-65
2023/08/19 04:01:46;;;;;;;;;;;;;;;;;;5000865;28;20112;-66
2023/08/19 04:04:14;;;;;;;;;;;;;;;;;;4980681;28;19952;-68
2023/08/19 04:06:40;;;;;;;;;;;;;;;;;;4989416;28;19925;-65
2023/08/19 04:09:08;;;;;;;;;;;;;;;;;;4989381;28;19924;-65
2023/08/19 04:11:33;;;;;;;;;;;;;;;;;;4981618;28;19933;-65
2023/08/19 04:13:58;;;;;;;;;;;;;;;;;;4999973;28;19949;-65
2023/08/19 04:16:26;;;;;;;;;;;;;;;;;;5001862;28;19927;-64
2023/08/19 04:18:51;;;;;;;;;;;;;;;;;;4997860;28;19925;-66
2023/08/19 04:21:17;;;;;;;;;;;;;;;;;;5000766;28;19979;-65
2023/08/19 04:23:43;;;;;;;;;;;;;;;;;;4980820;28;20388;-66
2023/08/19 04:26:08;;;;;;;;;;;;;;;;;;4998405;28;19921;-70
2023/08/19 04:28:33;;;;;;;;;;;;;;;;;;4980177;28;19940;-65
2023/08/19 04:30:59;;;;;;;;;;;;;;;;;;4990653;28;19917;-66
2023/08/19 04:33:24;;;;;;;;;;;;;;;;;;4998106;28;20071;-65
2023/08/19 04:35:50;;;;;;;;;;;;;;;;;;5002257;28;19921;-65
2023/08/19 04:38:15;;;;;;;;;;;;;;;;;;5003211;28;19936;-66
2023/08/19 04:40:40;;;;;;;;;;;;;;;;;;4998557;28;19922;-68
2023/08/19 04:43:06;;;;;;;;;;;;;;;;;;4990075;28;20027;-65
2023/08/19 04:45:31;;;;;;;;;;;;;;;;;;4990644;28;19925;-65
2023/08/19 04:47:56;;;;;;;;;;;;;;;;;;4993216;28;20402;-65
2023/08/19 04:50:22;;;;;;;;;;;;;;;;;;5017893;28;19928;-65
2023/08/19 04:52:50;;;;;;;;;;;;;;;;;;4992822;28;19920;-64
2023/08/19 04:55:15;;;;;;;;;;;;;;;;;;5003421;28;19962;-64
2023/08/19 04:57:41;;;;;;;;;;;;;;;;;;5000819;28;19987;-64
2023/08/19 05:00:12;;;;;;;;;;;;;;;;;;5012319;28;19917;-68
2023/08/19 05:02:37;;;;;;;;;;;;;;;;;;4996808;28;19924;-65
2023/08/19 05:05:03;;;;;;;;;;;;;;;;;;5022362;28;19968;-65
2023/08/19 05:07:28;;;;;;;;;;;;;;;;;;5007634;28;21848;-65
2023/08/19 05:09:54;;;;;;;;;;;;;;;;;;4987392;28;19917;-65
2023/08/19 05:12:19;;;;;;;;;;;;;;;;;;5021658;28;20023;-65
2023/08/19 05:14:44;;;;;;;;;;;;;;;;;;5022558;28;19944;-65
2023/08/19 05:17:09;;;;;;;;;;;;;;;;;;5007929;28;19921;-65
2023/08/19 05:19:36;;;;;;;;;;;;;;;;;;5008776;28;19968;-65
2023/08/19 05:22:01;;;;;;;;;;;;;;;;;;4987101;28;20019;-65
2023/08/19 05:24:29;;;;;;;;;;;;;;;;;;5008009;28;20779;-64
2023/08/19 05:26:55;;;;;;;;;;;;;;;;;;5022331;28;19917;-63
2023/08/19 05:29:25;;;;;;;;;;;;;;;;;;5017745;28;20106;-64
2023/08/19 05:31:50;;;;;;;;;;;;;;;;;;5004388;28;20650;-65
2023/08/19 05:34:18;;;;;;;;;;;;;;;;;;5002831;28;20016;-69
2023/08/19 05:36:43;;;;;;;;;;;;;;;;;;5009076;28;19921;-64
2023/08/19 05:39:09;;;;;;;;;;;;;;;;;;5005950;28;20055;-63
2023/08/19 05:41:34;;;;;;;;;;;;;;;;;;5021675;28;20577;-64
2023/08/19 05:43:59;;;;;;;;;;;;;;;;;;5004463;28;19967;-64
2023/08/19 05:46:27;;;;;;;;;;;;;;;;;;5003750;28;19921;-64
2023/08/19 05:48:52;;;;;;;;;;;;;;;;;;4994669;28;19978;-64
2023/08/19 05:51:18;;;;;;;;;;;;;;;;;;5008722;28;19920;-64
2023/08/19 05:53:43;;;;;;;;;;;;;;;;;;5002542;28;19921;-67
2023/08/19 05:56:09;;;;;;;;;;;;;;;;;;4993234;28;19916;-67
2023/08/19 05:58:34;;;;;;;;;;;;;;;;;;5002195;28;20931;-65
2023/08/19 06:01:03;;;;;;;;;;;;;;;;;;5021911;28;20024;-67
2023/08/19 06:03:28;;;;;;;;;;;;;;;;;;5006894;28;20813;-65
2023/08/19 06:05:53;;;;;;;;;;;;;;;;;;5007041;28;19917;-65
2023/08/19 06:08:26;;;;;;;;;;;;;;;;;;5002231;28;19917;-65
2023/08/19 06:10:51;;;;;;;;;;;;;;;;;;4989978;28;19977;-64
2023/08/19 06:13:17;;;;;;;;;;;;;;;;;;4992654;28;20400;-64
2023/08/19 06:15:45;;;;;;;;;;;;;;;;;;5002469;28;20967;-68
2023/08/19 06:18:10;;;;;;;;;;;;;;;;;;5002800;28;20016;-64
2023/08/19 06:20:38;;;;;;;;;;;;;;;;;;5005501;28;20229;-65
2023/08/19 06:23:03;;;;;;;;;;;;;;;;;;4994276;28;20618;-66
2023/08/19 06:25:28;;;;;;;;;;;;;;;;;;5000224;28;20007;-66
2023/08/19 06:27:54;;;;;;;;;;;;;;;;;;5002094;28;20833;-65
2023/08/19 06:30:19;;;;;;;;;;;;;;;;;;5020250;28;19963;-65
2023/08/19 06:32:44;;;;;;;;;;;;;;;;;;5006361;28;20240;-65
2023/08/19 06:35:10;;;;;;;;;;;;;;;;;;5009372;28;19924;-66
2023/08/19 06:37:37;;;;;;;;;;;;;;;;;;5009828;28;21198;-66
2023/08/19 06:40:09;;;;;;;;;;;;;;;;;;4990754;28;19925;-65
2023/08/19 06:42:34;;;;;;;;;;;;;;;;;;4992986;28;19916;-66
2023/08/19 06:44:59;;;;;;;;;;;;;;;;;;5005007;28;19925;-65
2023/08/19 06:47:27;;;;;;;;;;;;;;;;;;5010331;28;19921;-65
2023/08/19 06:49:52;;;;;;;;;;;;;;;;;;5005013;28;19917;-66
2023/08/19 06:52:20;;;;;;;;;;;;;;;;;;4999786;28;19917;-65
2023/08/19 06:54:45;;;;;;;;;;;;;;;;;;5019689;28;19967;-65
2023/08/19 06:57:10;;;;;;;;;;;;;;;;;;5019469;28;19925;-65
2023/08/19 06:59:36;;;;;;;;;;;;;;;;;;5018689;28;20006;-65
2023/08/19 07:02:02;;;;;;;;;;;;;;;;;;5006417;28;19954;-66
2023/08/19 07:04:29;;;;;;;;;;;;;;;;;;4994456;28;19931;-66
2023/08/19 07:06:54;;;;;;;;;;;;;;;;;;5010806;28;20043;-66
2023/08/19 07:09:19;;;;;;;;;;;;;;;;;;4993301;28;19917;-66
2023/08/19 07:11:45;;;;;;;;;;;;;;;;;;5004351;28;19917;-65
2023/08/19 07:14:10;;;;;;;;;;;;;;;;;;5002508;28;19921;-65
2023/08/19 07:16:35;;;;;;;;;;;;;;;;;;4991247;28;19924;-65
2023/08/19 07:19:01;;;;;;;;;;;;;;;;;;4993415;28;20058;-66
2023/08/19 07:21:28;;;;;;;;;;;;;;;;;;4995156;28;19917;-65
2023/08/19 07:23:54;;;;;;;;;;;;;;;;;;5017383;28;19998;-65
2023/08/19 07:26:19;;;;;;;;;;;;;;;;;;4995637;28;21242;-65
2023/08/19 07:28:44;;;;;;;;;;;;;;;;;;5018953;28;19921;-65
2023/08/19 07:31:10;;;;;;;;;;;;;;;;;;5006169;28;20027;-65
2023/08/19 07:33:36;;;;;;;;;;;;;;;;;;5009365;28;20020;-65
2023/08/19 07:36:01;;;;;;;;;;;;;;;;;;4993807;28;19963;-65
2023/08/19 07:38:26;;;;;;;;;;;;;;;;;;5004796;28;19925;-65
2023/08/19 07:40:51;;;;;;;;;;;;;;;;;;4990738;28;19917;-65
2023/08/19 07:43:17;;;;;;;;;;;;;;;;;;5000401;28;20012;-65
2023/08/19 07:45:42;;;;;;;;;;;;;;;;;;4989654;28;20372;-65
2023/08/19 07:48:08;;;;;;;;;;;;;;;;;;4994124;28;19921;-65
2023/08/19 07:50:33;;;;;;;;;;;;;;;;;;4985666;28;20368;-64
2023/08/19 07:52:58;;;;;;;;;;;;;;;;;;4993019;28;19917;-65
2023/08/19 07:55:26;;;;;;;;;;;;;;;;;;5004492;28;19921;-66
2023/08/19 07:57:54;;;;;;;;;;;;;;;;;;5004734;28;20359;-68
2023/08/19 08:00:21;;;;;;;;;;;;;;;;;;5005597;28;20858;-65
2023/08/19 08:02:46;;;;;;;;;;;;;;;;;;5001364;28;19990;-65
2023/08/19 08:05:14;;;;;;;;;;;;;;;;;;5009656;28;19917;-65
2023/08/19 08:07:42;;;;;;;;;;;;;;;;;;5018310;28;20044;-65
2023/08/19 08:10:07;;;;;;;;;;;;;;;;;;5020844;28;19917;-64
2023/08/19 08:12:32;;;;;;;;;;;;;;;;;;4990914;28;19927;-65
2023/08/19 08:15:00;;;;;;;;;;;;;;;;;;5001855;28;19936;-65
2023/08/19 08:17:26;;;;;;;;;;;;;;;;;;5003194;28;20388;-65
2023/08/19 08:19:51;;;;;;;;;;;;;;;;;;5016885;28;21981;-65
2023/08/19 08:22:16;;;;;;;;;;;;;;;;;;4986691;28;19921;-65
2023/08/19 08:24:42;;;;;;;;;;;;;;;;;;5004968;28;19936;-65
2023/08/19 08:27:07;;;;;;;;;;;;;;;;;;5018596;28;20252;-65
2023/08/19 08:29:32;;;;;;;;;;;;;;;;;;5003906;28;19960;-65
2023/08/19 08:31:57;;;;;;;;;;;;;;;;;;5005014;28;20002;-65
2023/08/19 08:34:23;;;;;;;;;;;;;;;;;;5003111;28;19917;-65
2023/08/19 08:36:48;;;;;;;;;;;;;;;;;;5004180;28;19921;-65
2023/08/19 08:39:16;;;;;;;;;;;;;;;;;;4990763;28;21894;-65
2023/08/19 08:41:44;;;;;;;;;;;;;;;;;;4993082;28;20466;-65
2023/08/19 08:44:10;;;;;;;;;;;;;;;;;;5005439;28;19925;-66
2023/08/19 08:46:35;;;;;;;;;;;;;;;;;;5000293;28;19916;-65
2023/08/19 08:49:03;;;;;;;;;;;;;;;;;;5008200;28;19921;-65
2023/08/19 08:51:29;;;;;;;;;;;;;;;;;;5016301;28;19927;-65
2023/08/19 08:53:54;;;;;;;;;;;;;;;;;;5006875;28;19916;-65
2023/08/19 08:56:19;;;;;;;;;;;;;;;;;;4992671;28;19920;-66
2023/08/19 08:58:45;;;;;;;;;;;;;;;;;;5017969;28;19925;-66
2023/08/19 09:01:10;;;;;;;;;;;;;;;;;;4999370;28;19920;-66
2023/08/19 09:03:36;;;;;;;;;;;;;;;;;;5007810;28;20285;-66
2023/08/19 09:06:04;;;;;;;;;;;;;;;;;;5018135;28;19928;-65
2023/08/19 09:08:29;;;;;;;;;;;;;;;;;;5003607;28;20189;-66
2023/08/19 09:10:54;;;;;;;;;;;;;;;;;;5009420;28;19925;-67
2023/08/19 09:13:22;;;;;;;;;;;;;;;;;;5017266;28;20047;-67
2023/08/19 09:15:48;;;;;;;;;;;;;;;;;;5019105;28;20311;-65
2023/08/19 09:18:17;;;;;;;;;;;;;;;;;;5016927;28;19925;-65
2023/08/19 09:20:43;;;;;;;;;;;;;;;;;;5009166;28;19927;-65
2023/08/19 09:23:11;;;;;;;;;;;;;;;;;;4999917;28;19921;-65
2023/08/19 09:25:39;;;;;;;;;;;;;;;;;;5004577;28;19924;-66
2023/08/19 09:28:04;;;;;;;;;;;;;;;;;;4997274;28;19925;-64
2023/08/19 09:30:30;;;;;;;;;;;;;;;;;;5018800;28;20015;-66
2023/08/19 09:32:55;;;;;;;;;;;;;;;;;;5018885;28;19917;-67
2023/08/19 09:35:21;;;;;;;;;;;;;;;;;;5017562;28;19917;-66
2023/08/19 09:37:49;;;;;;;;;;;;;;;;;;5000384;28;20047;-66
2023/08/19 09:40:17;;;;;;;;;;;;;;;;;;5001005;28;19917;-66
2023/08/19 09:42:45;;;;;;;;;;;;;;;;;;5018848;28;20035;-66
2023/08/19 09:45:10;;;;;;;;;;;;;;;;;;5002742;28;20028;-67
2023/08/19 09:47:35;;;;;;;;;;;;;;;;;;5021161;28;19927;-67
2023/08/19 09:50:01;;;;;;;;;;;;;;;;;;4994713;28;19921;-65
2023/08/19 09:52:26;;;;;;;;;;;;;;;;;;5021187;28;20028;-67
2023/08/19 09:54:52;;;;;;;;;;;;;;;;;;5007666;28;19960;-67
2023/08/19 09:57:18;;;;;;;;;;;;;;;;;;5021367;28;20810;-71
2023/08/19 09:59:45;;;;;;;;;;;;;;;;;;4994791;28;20493;-67
2023/08/19 10:02:11;;;;;;;;;;;;;;;;;;4986221;28;19921;-67
2023/08/19 10:04:36;;;;;;;;;;;;;;;;;;5020241;28;19917;-67
2023/08/19 10:07:01;;;;;;;;;;;;;;;;;;5006823;28;19916;-67
2023/08/19 10:09:26;;;;;;;;;;;;;;;;;;5021349;28;19956;-66
2023/08/19 10:11:52;;;;;;;;;;;;;;;;;;5020738;28;20024;-66
2023/08/19 10:14:17;;;;;;;;;;;;;;;;;;5019121;28;20027;-66
2023/08/19 10:16:45;;;;;;;;;;;;;;;;;;5007564;28;20276;-66
2023/08/19 10:19:10;;;;;;;;;;;;;;;;;;5010006;28;19925;-69
2023/08/19 10:21:35;;;;;;;;;;;;;;;;;;4991038;28;19925;-69
2023/08/19 10:24:00;;;;;;;;;;;;;;;;;;5001231;28;19973;-67
2023/08/19 10:26:26;;;;;;;;;;;;;;;;;;5007715;28;20458;-68
2023/08/19 10:28:51;;;;;;;;;;;;;;;;;;4985413;28;20822;-68
2023/08/19 10:31:17;;;;;;;;;;;;;;;;;;5006307;28;19971;-69
2023/08/19 10:33:45;;;;;;;;;;;;;;;;;;4986173;28;19921;-68
2023/08/19 10:36:10;;;;;;;;;;;;;;;;;;5012251;28;19940;-68
2023/08/19 10:38:35;;;;;;;;;;;;;;;;;;4985473;28;20542;-69
2023/08/19 10:41:02;;;;;;;;;;;;;;;;;;5001045;28;19917;-68
2023/08/19 10:43:27;;;;;;;;;;;;;;;;;;5002396;28;20169;-69
2023/08/19 10:45:52;;;;;;;;;;;;;;;;;;5021902;28;20726;-68
2023/08/19 10:48:17;;;;;;;;;;;;;;;;;;5020816;28;19921;-68
2023/08/19 10:50:45;;;;;;;;;;;;;;;;;;5003427;28;19924;-67
2023/08/19 10:53:10;;;;;;;;;;;;;;;;;;5000178;28;19960;-68
2023/08/19 10:55:35;;;;;;;;;;;;;;;;;;5019159;28;20008;-68
2023/08/19 10:58:01;;;;;;;;;;;;;;;;;;4985910;28;20412;-72
2023/08/19 11:00:26;;;;;;;;;;;;;;;;;;4992124;28;20580;-72
2023/08/19 11:02:52;;;;;;;;;;;;;;;;;;5002589;28;19950;-72
2023/08/19 11:05:18;;;;;;;;;;;;;;;;;;5018211;28;20028;-72
2023/08/19 11:07:43;;;;;;;;;;;;;;;;;;5002270;28;20019;-71
2023/08/19 11:10:09;;;;;;;;;;;;;;;;;;5020157;28;19924;-71
2023/08/19 11:12:34;;;;;;;;;;;;;;;;;;5005809;28;20916;-71
2023/08/19 11:15:00;;;;;;;;;;;;;;;;;;5019537;28;19921;-71
2023/08/19 11:17:25;;;;;;;;;;;;;;;;;;5020980;28;19932;-69
2023/08/19 11:19:50;;;;;;;;;;;;;;;;;;5020661;28;19917;-70
2023/08/19 11:22:16;;;;;;;;;;;;;;;;;;4993733;28;19921;-71
2023/08/19 11:24:41;;;;;;;;;;;;;;;;;;5000825;28;19921;-71
2023/08/19 11:27:07;;;;;;;;;;;;;;;;;;5000817;28;19917;-72
2023/08/19 11:29:32;;;;;;;;;;;;;;;;;;4997177;28;19927;-74
2023/08/19 11:32:00;;;;;;;;;;;;;;;;;;5001291;28;19960;-72
2023/08/19 11:34:25;;;;;;;;;;;;;;;;;;5001852;28;20058;-72
2023/08/19 11:36:56;;;;;;;;;;;;;;;;;;5018963;28;19921;-75
2023/08/19 11:39:21;;;;;;;;;;;;;;;;;;5003265;28;20452;-74
2023/08/19 11:41:47;;;;;;;;;;;;;;;;;;5001470;28;19928;-74
2023/08/19 11:44:12;;;;;;;;;;;;;;;;;;5005335;28;20285;-73
2023/08/19 11:46:38;;;;;;;;;;;;;;;;;;5006133;28;19921;-74
2023/08/19 11:49:03;;;;;;;;;;;;;;;;;;4998196;28;19922;-67
2023/08/19 11:51:31;;;;;;;;;;;;;;;;;;4997427;28;20514;-68
2023/08/19 11:53:56;;;;;;;;;;;;;;;;;;4993330;28;19979;-75
2023/08/19 11:56:21;;;;;;;;;;;;;;;;;;4981076;28;19925;-69
2023/08/19 11:58:52;;;;;;;;;;;;;;;;;;4996074;28;19992;-69
2023/08/19 12:01:17;;;;;;;;;;;;;;;;;;4999439;28;19928;-69
2023/08/19 12:03:45;;;;;;;;;;;;;;;;;;4979639;28;19967;-70
2023/08/19 12:06:11;;;;;;;;;;;;;;;;;;4987054;28;19922;-68
2023/08/19 12:08:39;;;;;;;;;;;;;;;;;;5004107;28;19917;-74
2023/08/19 12:11:04;;;;;;;;;;;;;;;;;;5002578;28;20253;-74
2023/08/19 12:13:32;;;;;;;;;;;;;;;;;;4994502;28;19945;-77
2023/08/19 12:16:00;;;;;;;;;;;;;;;;;;4997708;28;20687;-68
2023/08/19 12:18:27;;;;;;;;;;;;;;;;;;4996544;28;19921;-70
2023/08/19 12:20:53;;;;;;;;;;;;;;;;;;4986589;28;19921;-76
2023/08/19 12:23:21;;;;;;;;;;;;;;;;;;4996452;28;19932;-70
2023/08/19 12:25:46;;;;;;;;;;;;;;;;;;4999177;28;19922;-67
2023/08/19 12:28:17;;;;;;;;;;;;;;;;;;5000951;28;20023;-69
2023/08/19 12:30:43;;;;;;;;;;;;;;;;;;4995702;28;19945;-71
2023/08/19 12:33:08;;;;;;;;;;;;;;;;;;5005865;28;20300;-65
2023/08/19 12:35:36;;;;;;;;;;;;;;;;;;5003261;28;19921;-73
2023/08/19 12:38:04;;;;;;;;;;;;;;;;;;4996761;28;20470;-69
2023/08/19 12:40:29;;;;;;;;;;;;;;;;;;4988354;28;19921;-73
2023/08/19 12:42:55;;;;;;;;;;;;;;;;;;5005924;28;19979;-70
2023/08/19 12:45:20;;;;;;;;;;;;;;;;;;4997817;28;19936;-67
2023/08/19 12:47:46;;;;;;;;;;;;;;;;;;5000188;28;20029;-70
2023/08/19 12:50:15;;;;;;;;;;;;;;;;;;4980273;28;19921;-66
2023/08/19 12:52:42;;;;;;;;;;;;;;;;;;4996378;28;19925;-68
2023/08/19 12:55:10;;;;;;;;;;;;;;;;;;4997113;28;20527;-70
2023/08/19 12:57:42;;;;;;;;;;;;;;;;;;4981029;28;20024;-68
2023/08/19 13:00:08;;;;;;;;;;;;;;;;;;4999063;28;19987;-71
2023/08/19 13:02:33;;;;;;;;;;;;;;;;;;4998958;28;20310;-70
2023/08/19 13:04:59;;;;;;;;;;;;;;;;;;4987759;28;19971;-70
2023/08/19 13:07:24;;;;;;;;;;;;;;;;;;4996433;28;19926;-70
2023/08/19 13:09:50;;;;;;;;;;;;;;;;;;4998242;28;20100;-70
2023/08/19 13:12:15;;;;;;;;;;;;;;;;;;4998420;28;19978;-68
2023/08/19 13:14:41;;;;;;;;;;;;;;;;;;5000922;28;19970;-69
2023/08/19 13:17:09;;;;;;;;;;;;;;;;;;4996153;28;19921;-70
2023/08/19 13:19:34;;;;;;;;;;;;;;;;;;4996219;28;19917;-67
2023/08/19 13:22:00;;;;;;;;;;;;;;;;;;4998658;28;19925;-68
2023/08/19 13:24:25;;;;;;;;;;;;;;;;;;5001578;28;20468;-71
2023/08/19 13:26:50;;;;;;;;;;;;;;;;;;5003603;28;19921;-65
2023/08/19 13:29:16;;;;;;;;;;;;;;;;;;5002113;28;19921;-67
2023/08/19 13:31:41;;;;;;;;;;;;;;;;;;5000224;28;19925;-68
2023/08/19 13:34:06;;;;;;;;;;;;;;;;;;4999544;28;19921;-68
2023/08/19 13:36:32;;;;;;;;;;;;;;;;;;4990359;28;19917;-67
2023/08/19 13:38:57;;;;;;;;;;;;;;;;;;5008618;28;19935;-70
2023/08/19 13:41:29;;;;;;;;;;;;;;;;;;4984333;28;19948;-66
2023/08/19 13:43:54;;;;;;;;;;;;;;;;;;4995108;28;19920;-65
2023/08/19 13:46:23;;;;;;;;;;;;;;;;;;5022237;28;19933;-68
2023/08/19 13:48:51;;;;;;;;;;;;;;;;;;5020553;28;19917;-68
2023/08/19 13:51:18;;;;;;;;;;;;;;;;;;5003717;28;19975;-67
2023/08/19 13:53:46;;;;;;;;;;;;;;;;;;4995555;28;20687;-68
2023/08/19 13:56:11;;;;;;;;;;;;;;;;;;4993246;28;19917;-66
2023/08/19 13:58:37;;;;;;;;;;;;;;;;;;5011484;28;20040;-67
2023/08/19 14:01:07;;;;;;;;;;;;;;;;;;4987403;28;19921;-67
2023/08/19 14:03:32;;;;;;;;;;;;;;;;;;5021080;28;19932;-66
2023/08/19 14:06:02;;;;;;;;;;;;;;;;;;4994784;28;19953;-65
2023/08/19 14:08:28;;;;;;;;;;;;;;;;;;5021673;28;20384;-67
2023/08/19 14:10:56;;;;;;;;;;;;;;;;;;5002784;28;19931;-67
2023/08/19 14:13:23;;;;;;;;;;;;;;;;;;4995884;28;20276;-68
2023/08/19 14:15:51;;;;;;;;;;;;;;;;;;5011426;28;19941;-70
2023/08/19 14:18:19;;;;;;;;;;;;;;;;;;5010701;28;19934;-69
2023/08/19 14:20:44;;;;;;;;;;;;;;;;;;5005183;28;20927;-68
2023/08/19 14:23:09;;;;;;;;;;;;;;;;;;5002238;28;19921;-70
2023/08/19 14:25:37;;;;;;;;;;;;;;;;;;5020896;28;19928;-68
2023/08/19 14:28:06;;;;;;;;;;;;;;;;;;4995254;28;20001;-67
2023/08/19 14:30:35;;;;;;;;;;;;;;;;;;5002237;28;19967;-70
2023/08/19 14:33:01;;;;;;;;;;;;;;;;;;5021143;28;19932;-67
2023/08/19 14:35:26;;;;;;;;;;;;;;;;;;5005134;28;19921;-68
2023/08/19 14:37:54;;;;;;;;;;;;;;;;;;5003574;28;19978;-68
2023/08/19 14:40:26;;;;;;;;;;;;;;;;;;4994326;28;19964;-68
2023/08/19 14:42:54;;;;;;;;;;;;;;;;;;5004261;28;19924;-69
2023/08/19 14:45:19;;;;;;;;;;;;;;;;;;5021350;28;19936;-68
2023/08/19 14:47:44;;;;;;;;;;;;;;;;;;5003310;28;19921;-71
2023/08/19 14:50:10;;;;;;;;;;;;;;;;;;5001815;28;21735;-69
2023/08/19 14:52:35;;;;;;;;;;;;;;;;;;5011430;28;19921;-70
2023/08/19 14:55:04;;;;;;;;;;;;;;;;;;5020723;28;19921;-67
2023/08/19 14:57:29;;;;;;;;;;;;;;;;;;4994688;28;20394;-69
2023/08/19 14:59:55;;;;;;;;;;;;;;;;;;5004627;28;19921;-69
2023/08/19 15:02:20;;;;;;;;;;;;;;;;;;4985655;28;20571;-68
2023/08/19 15:04:45;;;;;;;;;;;;;;;;;;5005768;28;19921;-68
2023/08/19 15:07:11;;;;;;;;;;;;;;;;;;5002023;28;20364;-69
2023/08/19 15:09:38;;;;;;;;;;;;;;;;;;5020574;28;19921;-68
2023/08/19 15:12:04;;;;;;;;;;;;;;;;;;5002540;28;21865;-68
2023/08/19 15:14:29;;;;;;;;;;;;;;;;;;5001566;28;19964;-69
2023/08/19 15:16:54;;;;;;;;;;;;;;;;;;5012181;28;19921;-69
2023/08/19 15:19:20;;;;;;;;;;;;;;;;;;5005127;28;21154;-69
2023/08/19 15:21:45;;;;;;;;;;;;;;;;;;4993203;28;19963;-68
2023/08/19 15:24:10;;;;;;;;;;;;;;;;;;4991739;28;20391;-68
2023/08/19 15:26:36;;;;;;;;;;;;;;;;;;5012084;28;19917;-68
2023/08/19 15:29:01;;;;;;;;;;;;;;;;;;5019672;28;20044;-69
2023/08/19 15:31:31;;;;;;;;;;;;;;;;;;4984934;28;19963;-70
2023/08/19 15:33:57;;;;;;;;;;;;;;;;;;4993322;28;19921;-69
2023/08/19 15:36:22;;;;;;;;;;;;;;;;;;5005297;28;19923;-69
2023/08/19 15:38:50;;;;;;;;;;;;;;;;;;5000448;28;19925;-69
2023/08/19 15:41:17;;;;;;;;;;;;;;;;;;5000814;28;20548;-69
2023/08/19 15:43:42;;;;;;;;;;;;;;;;;;4987750;28;19917;-70
2023/08/19 15:46:07;;;;;;;;;;;;;;;;;;5002215;28;20383;-69
2023/08/19 15:48:33;;;;;;;;;;;;;;;;;;5018928;28;19921;-68
2023/08/19 15:50:58;;;;;;;;;;;;;;;;;;4995045;28;19924;-71
2023/08/19 15:53:23;;;;;;;;;;;;;;;;;;5000195;28;19991;-67
2023/08/19 15:55:49;;;;;;;;;;;;;;;;;;5019688;28;19967;-69
2023/08/19 15:58:14;;;;;;;;;;;;;;;;;;4991476;28;20652;-68
2023/08/19 16:00:39;;;;;;;;;;;;;;;;;;5002043;28;19921;-68
2023/08/19 16:03:07;;;;;;;;;;;;;;;;;;4993636;28;19917;-67
2023/08/19 16:05:33;;;;;;;;;;;;;;;;;;5009381;28;19916;-68
2023/08/19 16:08:01;;;;;;;;;;;;;;;;;;4987357;28;19921;-67
2023/08/19 16:10:30;;;;;;;;;;;;;;;;;;5018825;28;19920;-68
2023/08/19 16:12:55;;;;;;;;;;;;;;;;;;5019840;28;19921;-66
2023/08/19 16:15:20;;;;;;;;;;;;;;;;;;5004181;28;19924;-68
2023/08/19 16:17:48;;;;;;;;;;;;;;;;;;5001823;28;19991;-68
2023/08/19 16:20:13;;;;;;;;;;;;;;;;;;4999867;28;19932;-67
2023/08/19 16:22:39;;;;;;;;;;;;;;;;;;5004026;28;20008;-68
2023/08/19 16:25:04;;;;;;;;;;;;;;;;;;4999812;28;19921;-69
2023/08/19 16:27:29;;;;;;;;;;;;;;;;;;5000743;28;19928;-66
2023/08/19 16:29:55;;;;;;;;;;;;;;;;;;5008547;28;20035;-67
2023/08/19 16:32:20;;;;;;;;;;;;;;;;;;5020079;28;19967;-68
2023/08/19 16:34:45;;;;;;;;;;;;;;;;;;5018421;28;19928;-69
2023/08/19 16:37:11;;;;;;;;;;;;;;;;;;5017837;28;19921;-66
2023/08/19 16:39:36;;;;;;;;;;;;;;;;;;5004009;28;20038;-71